sensor_id;sensor_type;location;lat;lon;timestamp;P1;durP1;ratioP1;P2;durP2;ratioP2
32906;SDS011;19259;51.590;5.320;2022-11-15T00:01:09;51.10;;;22.17;;
32906;SDS011;19259;51.590;5.320;2022-11-15T00:03:38;50.45;;;22.42;;
32906;SDS011;19259;51.590;5.320;2022-11-15T00:06:06;60.23;;;22.98;;
32906;SDS011;19259;51.590;5.320;2022-11-15T00:08:33;54.55;;;22.58;;
32906;SDS011;19259;51.590;5.320;2022-11-15T00:11:01;58.40;;;23.15;;
32906;SDS011;19259;51.590;5.320;2022-11-15T00:13:29;53.87;;;22.10;;
32906;SDS011;19259;51.590;5.320;2022-11-15T00:15:57;54.58;;;23.02;;
32906;SDS011;19259;51.590;5.320;2022-11-15T00:18:26;45.75;;;21.27;;
32906;SDS011;19259;51.590;5.320;2022-11-15T00:20:55;47.62;;;21.12;;
32906;SDS011;19259;51.590;5.320;2022-11-15T00:23:25;46.83;;;21.20;;
32906;SDS011;19259;51.590;5.320;2022-11-15T00:25:56;44.60;;;20.97;;
32906;SDS011;19259;51.590;5.320;2022-11-15T00:28:24;45.45;;;20.92;;
32906;SDS011;19259;51.590;5.320;2022-11-15T00:30:52;50.63;;;22.75;;
32906;SDS011;19259;51.590;5.320;2022-11-15T00:33:20;49.70;;;21.95;;
32906;SDS011;19259;51.590;5.320;2022-11-15T00:35:48;52.15;;;21.75;;
32906;SDS011;19259;51.590;5.320;2022-11-15T00:38:15;44.05;;;21.87;;
32906;SDS011;19259;51.590;5.320;2022-11-15T00:40:43;45.35;;;20.95;;
32906;SDS011;19259;51.590;5.320;2022-11-15T00:43:10;43.83;;;19.80;;
32906;SDS011;19259;51.590;5.320;2022-11-15T00:45:38;47.65;;;21.02;;
32906;SDS011;19259;51.590;5.320;2022-11-15T00:48:05;44.58;;;20.85;;
32906;SDS011;19259;51.590;5.320;2022-11-15T00:50:36;48.68;;;21.97;;
32906;SDS011;19259;51.590;5.320;2022-11-15T00:53:04;44.20;;;20.35;;
32906;SDS011;19259;51.590;5.320;2022-11-15T00:55:33;43.50;;;20.60;;
32906;SDS011;19259;51.590;5.320;2022-11-15T00:58:01;40.98;;;20.37;;
32906;SDS011;19259;51.590;5.320;2022-11-15T01:00:28;42.15;;;19.87;;
32906;SDS011;19259;51.590;5.320;2022-11-15T01:02:56;45.08;;;20.52;;
32906;SDS011;19259;51.590;5.320;2022-11-15T01:05:23;43.02;;;19.92;;
32906;SDS011;19259;51.590;5.320;2022-11-15T01:07:56;41.58;;;20.55;;
32906;SDS011;19259;51.590;5.320;2022-11-15T01:10:21;45.67;;;20.43;;
32906;SDS011;19259;51.590;5.320;2022-11-15T01:12:51;45.03;;;20.08;;
32906;SDS011;19259;51.590;5.320;2022-11-15T01:15:19;49.27;;;21.82;;
32906;SDS011;19259;51.590;5.320;2022-11-15T01:17:47;41.75;;;21.35;;
32906;SDS011;19259;51.590;5.320;2022-11-15T01:20:14;42.33;;;20.52;;
32906;SDS011;19259;51.590;5.320;2022-11-15T01:22:42;42.40;;;20.80;;
32906;SDS011;19259;51.590;5.320;2022-11-15T01:25:09;44.30;;;21.48;;
32906;SDS011;19259;51.590;5.320;2022-11-15T01:27:37;46.00;;;21.35;;
32906;SDS011;19259;51.590;5.320;2022-11-15T01:30:06;43.65;;;20.70;;
32906;SDS011;19259;51.590;5.320;2022-11-15T01:32:35;42.93;;;20.90;;
32906;SDS011;19259;51.590;5.320;2022-11-15T01:35:03;42.80;;;19.57;;
32906;SDS011;19259;51.590;5.320;2022-11-15T01:37:33;43.40;;;21.50;;
32906;SDS011;19259;51.590;5.320;2022-11-15T01:40:03;40.50;;;20.82;;
32906;SDS011;19259;51.590;5.320;2022-11-15T01:42:31;41.33;;;20.57;;
32906;SDS011;19259;51.590;5.320;2022-11-15T01:44:58;40.73;;;19.98;;
32906;SDS011;19259;51.590;5.320;2022-11-15T01:47:28;41.65;;;19.55;;
32906;SDS011;19259;51.590;5.320;2022-11-15T01:50:04;36.70;;;20.02;;
32906;SDS011;19259;51.590;5.320;2022-11-15T01:52:33;41.58;;;20.60;;
32906;SDS011;19259;51.590;5.320;2022-11-15T01:57:33;44.98;;;20.23;;
32906;SDS011;19259;51.590;5.320;2022-11-15T02:00:02;43.05;;;20.68;;
32906;SDS011;19259;51.590;5.320;2022-11-15T02:02:32;42.25;;;19.98;;
32906;SDS011;19259;51.590;5.320;2022-11-15T02:05:02;43.40;;;21.68;;
32906;SDS011;19259;51.590;5.320;2022-11-15T02:07:30;41.70;;;20.62;;
32906;SDS011;19259;51.590;5.320;2022-11-15T02:09:59;40.48;;;20.52;;
32906;SDS011;19259;51.590;5.320;2022-11-15T02:12:35;40.33;;;20.50;;
32906;SDS011;19259;51.590;5.320;2022-11-15T02:15:03;41.88;;;20.35;;
32906;SDS011;19259;51.590;5.320;2022-11-15T02:17:36;42.75;;;21.10;;
32906;SDS011;19259;51.590;5.320;2022-11-15T02:25:35;37.23;;;19.40;;
32906;SDS011;19259;51.590;5.320;2022-11-15T02:30:47;44.95;;;21.50;;
32906;SDS011;19259;51.590;5.320;2022-11-15T02:33:23;43.25;;;21.33;;
32906;SDS011;19259;51.590;5.320;2022-11-15T02:35:52;43.15;;;21.27;;
32906;SDS011;19259;51.590;5.320;2022-11-15T02:41:02;46.08;;;22.15;;
32906;SDS011;19259;51.590;5.320;2022-11-15T02:43:47;40.10;;;21.40;;
32906;SDS011;19259;51.590;5.320;2022-11-15T02:49:28;44.88;;;21.85;;
32906;SDS011;19259;51.590;5.320;2022-11-15T02:51:58;46.37;;;22.37;;
32906;SDS011;19259;51.590;5.320;2022-11-15T02:54:28;45.95;;;22.82;;
32906;SDS011;19259;51.590;5.320;2022-11-15T02:57:06;45.45;;;21.45;;
32906;SDS011;19259;51.590;5.320;2022-11-15T02:59:43;43.52;;;22.52;;
32906;SDS011;19259;51.590;5.320;2022-11-15T03:02:15;49.15;;;23.75;;
32906;SDS011;19259;51.590;5.320;2022-11-15T03:07:40;39.98;;;21.73;;
32906;SDS011;19259;51.590;5.320;2022-11-15T03:10:30;48.80;;;23.00;;
32906;SDS011;19259;51.590;5.320;2022-11-15T03:13:07;43.68;;;23.12;;
32906;SDS011;19259;51.590;5.320;2022-11-15T03:15:44;46.95;;;23.67;;
32906;SDS011;19259;51.590;5.320;2022-11-15T03:18:21;42.03;;;22.02;;
32906;SDS011;19259;51.590;5.320;2022-11-15T03:20:46;47.98;;;23.20;;
32906;SDS011;19259;51.590;5.320;2022-11-15T03:23:15;44.88;;;23.22;;
32906;SDS011;19259;51.590;5.320;2022-11-15T03:25:45;43.00;;;21.05;;
32906;SDS011;19259;51.590;5.320;2022-11-15T03:28:20;44.48;;;22.10;;
32906;SDS011;19259;51.590;5.320;2022-11-15T03:30:45;47.67;;;22.25;;
32906;SDS011;19259;51.590;5.320;2022-11-15T03:33:14;49.58;;;22.73;;
32906;SDS011;19259;51.590;5.320;2022-11-15T03:35:43;46.53;;;23.38;;
32906;SDS011;19259;51.590;5.320;2022-11-15T03:38:17;45.38;;;22.85;;
32906;SDS011;19259;51.590;5.320;2022-11-15T03:43:34;50.63;;;24.12;;
32906;SDS011;19259;51.590;5.320;2022-11-15T03:46:23;44.67;;;23.02;;
32906;SDS011;19259;51.590;5.320;2022-11-15T03:48:57;46.02;;;22.80;;
32906;SDS011;19259;51.590;5.320;2022-11-15T03:51:25;44.67;;;22.82;;
32906;SDS011;19259;51.590;5.320;2022-11-15T03:53:52;49.18;;;23.95;;
32906;SDS011;19259;51.590;5.320;2022-11-15T03:56:20;43.98;;;22.10;;
32906;SDS011;19259;51.590;5.320;2022-11-15T03:58:47;47.17;;;22.65;;
32906;SDS011;19259;51.590;5.320;2022-11-15T04:01:15;48.17;;;23.07;;
32906;SDS011;19259;51.590;5.320;2022-11-15T04:03:42;48.05;;;22.58;;
32906;SDS011;19259;51.590;5.320;2022-11-15T04:06:10;47.78;;;24.05;;
32906;SDS011;19259;51.590;5.320;2022-11-15T04:08:39;47.60;;;23.05;;
32906;SDS011;19259;51.590;5.320;2022-11-15T04:11:06;45.40;;;24.18;;
32906;SDS011;19259;51.590;5.320;2022-11-15T04:13:34;55.40;;;24.25;;
32906;SDS011;19259;51.590;5.320;2022-11-15T04:16:01;42.25;;;23.42;;
32906;SDS011;19259;51.590;5.320;2022-11-15T04:18:29;53.17;;;24.18;;
32906;SDS011;19259;51.590;5.320;2022-11-15T04:20:57;50.23;;;24.55;;
32906;SDS011;19259;51.590;5.320;2022-11-15T04:23:42;42.95;;;22.73;;
32906;SDS011;19259;51.590;5.320;2022-11-15T04:26:27;51.40;;;25.97;;
32906;SDS011;19259;51.590;5.320;2022-11-15T04:28:55;43.98;;;22.48;;
32906;SDS011;19259;51.590;5.320;2022-11-15T04:31:40;51.25;;;24.02;;
32906;SDS011;19259;51.590;5.320;2022-11-15T04:34:08;54.65;;;25.02;;
32906;SDS011;19259;51.590;5.320;2022-11-15T04:36:35;52.93;;;24.23;;
32906;SDS011;19259;51.590;5.320;2022-11-15T04:39:21;52.70;;;24.02;;
32906;SDS011;19259;51.590;5.320;2022-11-15T04:41:48;47.23;;;22.40;;
32906;SDS011;19259;51.590;5.320;2022-11-15T04:44:21;50.43;;;23.22;;
32906;SDS011;19259;51.590;5.320;2022-11-15T04:46:45;49.75;;;25.12;;
32906;SDS011;19259;51.590;5.320;2022-11-15T04:49:12;48.85;;;24.25;;
32906;SDS011;19259;51.590;5.320;2022-11-15T04:51:40;48.50;;;23.57;;
32906;SDS011;19259;51.590;5.320;2022-11-15T04:54:07;49.20;;;24.12;;
32906;SDS011;19259;51.590;5.320;2022-11-15T04:56:35;51.98;;;23.62;;
32906;SDS011;19259;51.590;5.320;2022-11-15T04:59:03;52.17;;;23.77;;
32906;SDS011;19259;51.590;5.320;2022-11-15T05:01:30;48.58;;;24.52;;
32906;SDS011;19259;51.590;5.320;2022-11-15T05:03:58;52.33;;;24.82;;
32906;SDS011;19259;51.590;5.320;2022-11-15T05:06:51;55.73;;;25.05;;
32906;SDS011;19259;51.590;5.320;2022-11-15T05:09:17;55.78;;;23.92;;
32906;SDS011;19259;51.590;5.320;2022-11-15T05:11:45;48.80;;;23.25;;
32906;SDS011;19259;51.590;5.320;2022-11-15T05:14:15;50.38;;;24.57;;
32906;SDS011;19259;51.590;5.320;2022-11-15T05:16:43;54.10;;;22.87;;
32906;SDS011;19259;51.590;5.320;2022-11-15T05:19:10;45.63;;;23.22;;
32906;SDS011;19259;51.590;5.320;2022-11-15T05:21:38;56.90;;;24.52;;
32906;SDS011;19259;51.590;5.320;2022-11-15T05:24:06;51.68;;;24.00;;
32906;SDS011;19259;51.590;5.320;2022-11-15T05:26:35;52.17;;;23.45;;
32906;SDS011;19259;51.590;5.320;2022-11-15T05:29:02;48.83;;;24.05;;
32906;SDS011;19259;51.590;5.320;2022-11-15T05:31:30;48.55;;;23.05;;
32906;SDS011;19259;51.590;5.320;2022-11-15T05:33:57;53.80;;;24.65;;
32906;SDS011;19259;51.590;5.320;2022-11-15T05:36:35;50.12;;;24.10;;
32906;SDS011;19259;51.590;5.320;2022-11-15T05:39:00;52.62;;;25.32;;
32906;SDS011;19259;51.590;5.320;2022-11-15T05:41:32;52.40;;;23.07;;
32906;SDS011;19259;51.590;5.320;2022-11-15T05:44:03;48.98;;;23.75;;
32906;SDS011;19259;51.590;5.320;2022-11-15T05:46:38;50.45;;;23.77;;
32906;SDS011;19259;51.590;5.320;2022-11-15T05:49:07;56.37;;;24.72;;
32906;SDS011;19259;51.590;5.320;2022-11-15T05:51:38;49.03;;;24.27;;
32906;SDS011;19259;51.590;5.320;2022-11-15T05:54:06;46.18;;;23.47;;
32906;SDS011;19259;51.590;5.320;2022-11-15T05:56:34;52.25;;;23.40;;
32906;SDS011;19259;51.590;5.320;2022-11-15T05:59:02;49.48;;;22.85;;
32906;SDS011;19259;51.590;5.320;2022-11-15T06:01:29;45.78;;;24.77;;
32906;SDS011;19259;51.590;5.320;2022-11-15T06:03:59;55.80;;;23.57;;
32906;SDS011;19259;51.590;5.320;2022-11-15T06:06:32;46.28;;;22.98;;
32906;SDS011;19259;51.590;5.320;2022-11-15T06:08:55;49.10;;;23.22;;
32906;SDS011;19259;51.590;5.320;2022-11-15T06:11:23;48.13;;;22.85;;
32906;SDS011;19259;51.590;5.320;2022-11-15T06:13:57;54.13;;;23.70;;
32906;SDS011;19259;51.590;5.320;2022-11-15T06:16:22;50.85;;;23.12;;
32906;SDS011;19259;51.590;5.320;2022-11-15T06:18:50;47.20;;;23.15;;
32906;SDS011;19259;51.590;5.320;2022-11-15T06:21:17;48.10;;;22.87;;
32906;SDS011;19259;51.590;5.320;2022-11-15T06:23:45;51.23;;;22.45;;
32906;SDS011;19259;51.590;5.320;2022-11-15T06:26:13;54.27;;;24.40;;
32906;SDS011;19259;51.590;5.320;2022-11-15T06:28:40;43.38;;;22.00;;
32906;SDS011;19259;51.590;5.320;2022-11-15T06:31:08;51.28;;;23.07;;
32906;SDS011;19259;51.590;5.320;2022-11-15T06:33:39;45.95;;;22.27;;
32906;SDS011;19259;51.590;5.320;2022-11-15T06:36:09;51.65;;;23.45;;
32906;SDS011;19259;51.590;5.320;2022-11-15T06:38:44;52.55;;;23.92;;
32906;SDS011;19259;51.590;5.320;2022-11-15T06:41:09;47.43;;;22.00;;
32906;SDS011;19259;51.590;5.320;2022-11-15T06:43:37;49.42;;;22.17;;
32906;SDS011;19259;51.590;5.320;2022-11-15T06:46:05;45.05;;;20.70;;
32906;SDS011;19259;51.590;5.320;2022-11-15T06:48:34;46.00;;;21.85;;
32906;SDS011;19259;51.590;5.320;2022-11-15T06:51:05;44.85;;;22.87;;
32906;SDS011;19259;51.590;5.320;2022-11-15T06:53:34;43.90;;;22.48;;
32906;SDS011;19259;51.590;5.320;2022-11-15T06:56:02;48.25;;;22.05;;
32906;SDS011;19259;51.590;5.320;2022-11-15T06:58:31;50.73;;;22.22;;
32906;SDS011;19259;51.590;5.320;2022-11-15T07:01:01;47.45;;;22.17;;
32906;SDS011;19259;51.590;5.320;2022-11-15T07:03:33;43.87;;;21.25;;
32906;SDS011;19259;51.590;5.320;2022-11-15T07:06:02;52.67;;;22.98;;
32906;SDS011;19259;51.590;5.320;2022-11-15T07:08:29;43.68;;;22.58;;
32906;SDS011;19259;51.590;5.320;2022-11-15T07:10:58;44.85;;;22.05;;
32906;SDS011;19259;51.590;5.320;2022-11-15T07:13:27;43.15;;;20.95;;
32906;SDS011;19259;51.590;5.320;2022-11-15T07:16:01;45.75;;;22.02;;
32906;SDS011;19259;51.590;5.320;2022-11-15T07:18:33;41.95;;;19.73;;
32906;SDS011;19259;51.590;5.320;2022-11-15T07:21:03;41.37;;;20.32;;
32906;SDS011;19259;51.590;5.320;2022-11-15T07:23:32;38.23;;;19.40;;
32906;SDS011;19259;51.590;5.320;2022-11-15T07:26:00;41.53;;;19.98;;
32906;SDS011;19259;51.590;5.320;2022-11-15T07:28:29;43.15;;;19.40;;
32906;SDS011;19259;51.590;5.320;2022-11-15T07:30:56;36.68;;;19.23;;
32906;SDS011;19259;51.590;5.320;2022-11-15T07:33:24;41.40;;;20.15;;
32906;SDS011;19259;51.590;5.320;2022-11-15T07:35:52;44.15;;;20.60;;
32906;SDS011;19259;51.590;5.320;2022-11-15T07:38:19;41.30;;;20.88;;
32906;SDS011;19259;51.590;5.320;2022-11-15T07:40:47;42.43;;;20.75;;
32906;SDS011;19259;51.590;5.320;2022-11-15T07:43:21;42.70;;;21.25;;
32906;SDS011;19259;51.590;5.320;2022-11-15T07:45:48;41.30;;;19.48;;
32906;SDS011;19259;51.590;5.320;2022-11-15T07:48:15;43.20;;;19.60;;
32906;SDS011;19259;51.590;5.320;2022-11-15T07:50:43;39.85;;;18.77;;
32906;SDS011;19259;51.590;5.320;2022-11-15T07:53:12;38.53;;;17.30;;
32906;SDS011;19259;51.590;5.320;2022-11-15T07:55:40;37.93;;;17.55;;
32906;SDS011;19259;51.590;5.320;2022-11-15T07:58:09;34.43;;;16.75;;
32906;SDS011;19259;51.590;5.320;2022-11-15T08:00:38;42.48;;;18.02;;
32906;SDS011;19259;51.590;5.320;2022-11-15T08:03:07;41.15;;;18.30;;
32906;SDS011;19259;51.590;5.320;2022-11-15T08:05:36;35.92;;;16.75;;
32906;SDS011;19259;51.590;5.320;2022-11-15T08:08:05;35.33;;;17.10;;
32906;SDS011;19259;51.590;5.320;2022-11-15T08:10:38;35.70;;;18.20;;
32906;SDS011;19259;51.590;5.320;2022-11-15T08:13:05;36.33;;;17.57;;
32906;SDS011;19259;51.590;5.320;2022-11-15T08:15:37;32.42;;;15.65;;
32906;SDS011;19259;51.590;5.320;2022-11-15T08:18:10;35.05;;;16.45;;
32906;SDS011;19259;51.590;5.320;2022-11-15T08:20:35;34.67;;;16.60;;
32906;SDS011;19259;51.590;5.320;2022-11-15T08:23:03;31.80;;;15.18;;
32906;SDS011;19259;51.590;5.320;2022-11-15T08:25:31;40.30;;;16.48;;
32906;SDS011;19259;51.590;5.320;2022-11-15T08:28:02;38.25;;;16.27;;
32906;SDS011;19259;51.590;5.320;2022-11-15T08:30:34;37.20;;;16.65;;
32906;SDS011;19259;51.590;5.320;2022-11-15T08:33:02;35.90;;;16.60;;
32906;SDS011;19259;51.590;5.320;2022-11-15T08:35:30;43.30;;;17.98;;
32906;SDS011;19259;51.590;5.320;2022-11-15T08:37:58;39.30;;;16.57;;
32906;SDS011;19259;51.590;5.320;2022-11-15T08:40:25;38.92;;;17.07;;
32906;SDS011;19259;51.590;5.320;2022-11-15T08:42:53;40.17;;;15.85;;
32906;SDS011;19259;51.590;5.320;2022-11-15T08:45:20;41.45;;;16.87;;
32906;SDS011;19259;51.590;5.320;2022-11-15T08:47:48;33.80;;;15.18;;
32906;SDS011;19259;51.590;5.320;2022-11-15T08:50:15;28.45;;;14.10;;
32906;SDS011;19259;51.590;5.320;2022-11-15T08:52:44;31.25;;;14.78;;
32906;SDS011;19259;51.590;5.320;2022-11-15T08:55:14;30.88;;;13.88;;
32906;SDS011;19259;51.590;5.320;2022-11-15T08:57:42;37.15;;;14.10;;
32906;SDS011;19259;51.590;5.320;2022-11-15T09:00:09;29.55;;;14.60;;
32906;SDS011;19259;51.590;5.320;2022-11-15T09:02:39;30.90;;;12.23;;
32906;SDS011;19259;51.590;5.320;2022-11-15T09:05:07;26.85;;;12.43;;
32906;SDS011;19259;51.590;5.320;2022-11-15T09:07:35;22.73;;;10.93;;
32906;SDS011;19259;51.590;5.320;2022-11-15T09:10:02;22.48;;;10.60;;
32906;SDS011;19259;51.590;5.320;2022-11-15T09:12:30;21.20;;;10.32;;
32906;SDS011;19259;51.590;5.320;2022-11-15T09:14:58;20.02;;;9.98;;
32906;SDS011;19259;51.590;5.320;2022-11-15T09:17:27;18.80;;;9.13;;
32906;SDS011;19259;51.590;5.320;2022-11-15T09:19:55;16.20;;;8.18;;
32906;SDS011;19259;51.590;5.320;2022-11-15T09:22:22;13.10;;;7.58;;
32906;SDS011;19259;51.590;5.320;2022-11-15T09:24:50;15.03;;;6.90;;
32906;SDS011;19259;51.590;5.320;2022-11-15T09:27:17;12.73;;;5.65;;
32906;SDS011;19259;51.590;5.320;2022-11-15T09:29:45;9.33;;;5.70;;
32906;SDS011;19259;51.590;5.320;2022-11-15T09:32:12;12.20;;;4.83;;
32906;SDS011;19259;51.590;5.320;2022-11-15T09:34:40;13.48;;;5.05;;
32906;SDS011;19259;51.590;5.320;2022-11-15T09:37:07;9.90;;;4.55;;
32906;SDS011;19259;51.590;5.320;2022-11-15T09:39:35;8.83;;;4.45;;
32906;SDS011;19259;51.590;5.320;2022-11-15T09:50:44;8.63;;;3.90;;
32906;SDS011;19259;51.590;5.320;2022-11-15T09:53:25;7.33;;;3.60;;
32906;SDS011;19259;51.590;5.320;2022-11-15T09:56:02;5.67;;;3.20;;
32906;SDS011;19259;51.590;5.320;2022-11-15T09:58:39;10.03;;;3.67;;
32906;SDS011;19259;51.590;5.320;2022-11-15T10:01:12;7.20;;;3.08;;
32906;SDS011;19259;51.590;5.320;2022-11-15T10:03:39;7.92;;;3.25;;
32906;SDS011;19259;51.590;5.320;2022-11-15T10:06:08;7.15;;;2.70;;
32906;SDS011;19259;51.590;5.320;2022-11-15T10:08:50;6.30;;;2.77;;
32906;SDS011;19259;51.590;5.320;2022-11-15T10:11:22;6.67;;;2.05;;
32906;SDS011;19259;51.590;5.320;2022-11-15T10:13:52;5.10;;;2.50;;
32906;SDS011;19259;51.590;5.320;2022-11-15T10:16:43;4.95;;;2.15;;
32906;SDS011;19259;51.590;5.320;2022-11-15T10:24:28;5.58;;;1.80;;
32906;SDS011;19259;51.590;5.320;2022-11-15T10:26:57;4.60;;;2.25;;
32906;SDS011;19259;51.590;5.320;2022-11-15T10:29:25;4.75;;;1.42;;
32906;SDS011;19259;51.590;5.320;2022-11-15T10:31:52;7.17;;;1.72;;
32906;SDS011;19259;51.590;5.320;2022-11-15T10:34:21;8.08;;;2.17;;
32906;SDS011;19259;51.590;5.320;2022-11-15T10:36:54;5.75;;;1.60;;
32906;SDS011;19259;51.590;5.320;2022-11-15T10:39:27;6.37;;;1.67;;
32906;SDS011;19259;51.590;5.320;2022-11-15T10:41:57;4.72;;;1.40;;
32906;SDS011;19259;51.590;5.320;2022-11-15T10:49:28;5.67;;;1.70;;
32906;SDS011;19259;51.590;5.320;2022-11-15T10:54:45;6.30;;;1.55;;
32906;SDS011;19259;51.590;5.320;2022-11-15T10:57:20;5.12;;;1.50;;
32906;SDS011;19259;51.590;5.320;2022-11-15T10:59:49;10.20;;;1.57;;
32906;SDS011;19259;51.590;5.320;2022-11-15T11:04:55;5.20;;;1.40;;
32906;SDS011;19259;51.590;5.320;2022-11-15T11:07:24;5.58;;;1.15;;
32906;SDS011;19259;51.590;5.320;2022-11-15T11:10:01;5.37;;;1.50;;
32906;SDS011;19259;51.590;5.320;2022-11-15T11:12:30;3.15;;;1.30;;
32906;SDS011;19259;51.590;5.320;2022-11-15T11:15:09;2.27;;;0.98;;
32906;SDS011;19259;51.590;5.320;2022-11-15T11:20:20;4.60;;;1.52;;
32906;SDS011;19259;51.590;5.320;2022-11-15T11:31:27;7.78;;;1.70;;
32906;SDS011;19259;51.590;5.320;2022-11-15T11:36:47;4.83;;;1.32;;
32906;SDS011;19259;51.590;5.320;2022-11-15T11:39:31;4.45;;;1.25;;
32906;SDS011;19259;51.590;5.320;2022-11-15T11:42:04;8.98;;;1.62;;
32906;SDS011;19259;51.590;5.320;2022-11-15T11:44:49;8.53;;;1.42;;
32906;SDS011;19259;51.590;5.320;2022-11-15T11:47:31;4.45;;;1.32;;
32906;SDS011;19259;51.590;5.320;2022-11-15T11:50:02;3.30;;;1.00;;
32906;SDS011;19259;51.590;5.320;2022-11-15T11:55:31;4.35;;;0.93;;
32906;SDS011;19259;51.590;5.320;2022-11-15T11:58:13;4.92;;;1.10;;
32906;SDS011;19259;51.590;5.320;2022-11-15T12:01:05;8.25;;;1.70;;
32906;SDS011;19259;51.590;5.320;2022-11-15T12:11:52;4.42;;;1.30;;
32906;SDS011;19259;51.590;5.320;2022-11-15T12:17:01;7.33;;;2.50;;
32906;SDS011;19259;51.590;5.320;2022-11-15T12:19:29;4.85;;;1.32;;
32906;SDS011;19259;51.590;5.320;2022-11-15T12:22:02;5.87;;;1.47;;
32906;SDS011;19259;51.590;5.320;2022-11-15T12:24:41;5.67;;;1.42;;
32906;SDS011;19259;51.590;5.320;2022-11-15T12:27:21;4.03;;;1.52;;
32906;SDS011;19259;51.590;5.320;2022-11-15T12:29:54;8.43;;;1.57;;
32906;SDS011;19259;51.590;5.320;2022-11-15T12:32:27;2.72;;;1.10;;
32906;SDS011;19259;51.590;5.320;2022-11-15T12:45:33;5.80;;;1.47;;
32906;SDS011;19259;51.590;5.320;2022-11-15T12:53:25;8.58;;;1.55;;
32906;SDS011;19259;51.590;5.320;2022-11-15T12:58:44;4.95;;;1.27;;
32906;SDS011;19259;51.590;5.320;2022-11-15T13:06:50;9.10;;;1.80;;
32906;SDS011;19259;51.590;5.320;2022-11-15T13:15:01;6.42;;;1.20;;
32906;SDS011;19259;51.590;5.320;2022-11-15T13:17:31;6.75;;;1.67;;
32906;SDS011;19259;51.590;5.320;2022-11-15T13:22:44;5.80;;;1.10;;
32906;SDS011;19259;51.590;5.320;2022-11-15T13:31:30;3.70;;;1.07;;
32906;SDS011;19259;51.590;5.320;2022-11-15T13:34:13;6.97;;;1.10;;
32906;SDS011;19259;51.590;5.320;2022-11-15T13:36:52;5.08;;;1.27;;
32906;SDS011;19259;51.590;5.320;2022-11-15T13:39:25;6.22;;;1.15;;
32906;SDS011;19259;51.590;5.320;2022-11-15T13:41:56;6.17;;;1.02;;
32906;SDS011;19259;51.590;5.320;2022-11-15T13:44:26;3.98;;;1.55;;
32906;SDS011;19259;51.590;5.320;2022-11-15T13:47:02;3.40;;;1.27;;
32906;SDS011;19259;51.590;5.320;2022-11-15T13:49:31;5.90;;;1.27;;
32906;SDS011;19259;51.590;5.320;2022-11-15T13:52:00;7.90;;;1.42;;
32906;SDS011;19259;51.590;5.320;2022-11-15T13:54:36;7.47;;;1.45;;
32906;SDS011;19259;51.590;5.320;2022-11-15T13:57:15;3.05;;;1.07;;
32906;SDS011;19259;51.590;5.320;2022-11-15T13:59:45;9.23;;;1.50;;
32906;SDS011;19259;51.590;5.320;2022-11-15T14:02:25;4.15;;;1.20;;
32906;SDS011;19259;51.590;5.320;2022-11-15T14:04:53;10.78;;;1.60;;
32906;SDS011;19259;51.590;5.320;2022-11-15T14:07:23;3.62;;;1.22;;
32906;SDS011;19259;51.590;5.320;2022-11-15T14:09:53;2.20;;;0.93;;
32906;SDS011;19259;51.590;5.320;2022-11-15T14:12:26;10.13;;;2.02;;
32906;SDS011;19259;51.590;5.320;2022-11-15T14:14:55;6.03;;;2.05;;
32906;SDS011;19259;51.590;5.320;2022-11-15T14:20:18;6.20;;;1.42;;
32906;SDS011;19259;51.590;5.320;2022-11-15T14:22:33;5.53;;;1.30;;
32906;SDS011;19259;51.590;5.320;2022-11-15T14:28:09;4.53;;;1.10;;
32906;SDS011;19259;51.590;5.320;2022-11-15T14:30:39;6.22;;;1.30;;
32906;SDS011;19259;51.590;5.320;2022-11-15T14:33:23;2.55;;;0.90;;
32906;SDS011;19259;51.590;5.320;2022-11-15T14:38:21;4.67;;;1.10;;
32906;SDS011;19259;51.590;5.320;2022-11-15T14:40:52;7.08;;;1.52;;
32906;SDS011;19259;51.590;5.320;2022-11-15T14:43:21;7.45;;;1.45;;
32906;SDS011;19259;51.590;5.320;2022-11-15T14:45:49;7.58;;;1.77;;
32906;SDS011;19259;51.590;5.320;2022-11-15T14:48:17;4.40;;;1.30;;
32906;SDS011;19259;51.590;5.320;2022-11-15T14:50:45;3.70;;;1.10;;
32906;SDS011;19259;51.590;5.320;2022-11-15T14:53:13;7.28;;;1.27;;
32906;SDS011;19259;51.590;5.320;2022-11-15T14:55:43;9.23;;;1.65;;
32906;SDS011;19259;51.590;5.320;2022-11-15T14:58:10;4.08;;;1.35;;
32906;SDS011;19259;51.590;5.320;2022-11-15T15:00:41;6.97;;;1.40;;
32906;SDS011;19259;51.590;5.320;2022-11-15T15:03:08;3.80;;;1.32;;
32906;SDS011;19259;51.590;5.320;2022-11-15T15:05:37;5.10;;;1.07;;
32906;SDS011;19259;51.590;5.320;2022-11-15T15:08:07;4.62;;;1.47;;
32906;SDS011;19259;51.590;5.320;2022-11-15T15:10:40;7.05;;;1.15;;
32906;SDS011;19259;51.590;5.320;2022-11-15T15:13:16;3.37;;;1.42;;
32906;SDS011;19259;51.590;5.320;2022-11-15T15:15:48;7.55;;;1.42;;
32906;SDS011;19259;51.590;5.320;2022-11-15T15:18:17;4.22;;;1.47;;
32906;SDS011;19259;51.590;5.320;2022-11-15T15:20:53;5.10;;;1.45;;
32906;SDS011;19259;51.590;5.320;2022-11-15T15:23:22;5.83;;;1.50;;
32906;SDS011;19259;51.590;5.320;2022-11-15T15:25:51;9.60;;;1.57;;
32906;SDS011;19259;51.590;5.320;2022-11-15T15:28:18;6.83;;;2.17;;
32906;SDS011;19259;51.590;5.320;2022-11-15T15:30:47;5.35;;;1.60;;
32906;SDS011;19259;51.590;5.320;2022-11-15T15:33:15;11.83;;;2.20;;
32906;SDS011;19259;51.590;5.320;2022-11-15T15:35:43;4.17;;;1.50;;
32906;SDS011;19259;51.590;5.320;2022-11-15T15:38:11;9.18;;;1.65;;
32906;SDS011;19259;51.590;5.320;2022-11-15T15:40:41;4.85;;;1.65;;
32906;SDS011;19259;51.590;5.320;2022-11-15T15:43:08;6.65;;;1.70;;
32906;SDS011;19259;51.590;5.320;2022-11-15T15:45:37;4.97;;;1.80;;
32906;SDS011;19259;51.590;5.320;2022-11-15T15:48:05;6.97;;;1.75;;
32906;SDS011;19259;51.590;5.320;2022-11-15T15:50:34;8.05;;;2.37;;
32906;SDS011;19259;51.590;5.320;2022-11-15T15:53:03;4.78;;;1.42;;
32906;SDS011;19259;51.590;5.320;2022-11-15T15:55:31;5.55;;;1.55;;
32906;SDS011;19259;51.590;5.320;2022-11-15T15:57:59;8.28;;;1.82;;
32906;SDS011;19259;51.590;5.320;2022-11-15T16:00:26;5.15;;;1.80;;
32906;SDS011;19259;51.590;5.320;2022-11-15T16:02:54;6.25;;;1.87;;
32906;SDS011;19259;51.590;5.320;2022-11-15T16:05:22;5.35;;;1.72;;
32906;SDS011;19259;51.590;5.320;2022-11-15T16:07:51;4.97;;;1.67;;
32906;SDS011;19259;51.590;5.320;2022-11-15T16:10:25;5.10;;;2.35;;
32906;SDS011;19259;51.590;5.320;2022-11-15T16:12:55;7.10;;;2.00;;
32906;SDS011;19259;51.590;5.320;2022-11-15T16:15:24;5.97;;;1.80;;
32906;SDS011;19259;51.590;5.320;2022-11-15T16:17:54;5.17;;;1.70;;
32906;SDS011;19259;51.590;5.320;2022-11-15T16:20:45;11.12;;;6.12;;
32906;SDS011;19259;51.590;5.320;2022-11-15T16:23:06;6.15;;;2.75;;
32906;SDS011;19259;51.590;5.320;2022-11-15T16:25:44;12.73;;;2.67;;
32906;SDS011;19259;51.590;5.320;2022-11-15T16:28:16;6.70;;;2.30;;
32906;SDS011;19259;51.590;5.320;2022-11-15T16:30:45;3.83;;;1.85;;
32906;SDS011;19259;51.590;5.320;2022-11-15T16:33:13;6.60;;;2.70;;
32906;SDS011;19259;51.590;5.320;2022-11-15T16:35:42;7.28;;;2.60;;
32906;SDS011;19259;51.590;5.320;2022-11-15T16:38:13;4.10;;;2.40;;
32906;SDS011;19259;51.590;5.320;2022-11-15T16:40:40;4.53;;;2.20;;
32906;SDS011;19259;51.590;5.320;2022-11-15T16:43:08;6.60;;;2.87;;
32906;SDS011;19259;51.590;5.320;2022-11-15T16:45:39;8.83;;;3.47;;
32906;SDS011;19259;51.590;5.320;2022-11-15T16:48:08;11.68;;;3.20;;
32906;SDS011;19259;51.590;5.320;2022-11-15T16:50:40;7.75;;;3.20;;